Park City, Utah
Current Conditions -  °F | °C
As of 2:15 PM on Tuesday 21 Oct 2014 (Local Time) from K36U Reporting Station
Broken Clouds Broken Clouds  
Wind Chill: 66°   Ceiling: 10000
Heat Index: 66°   Visibility: 10mi
Dew Point: 37°   Wind: 7mph
Humidity: 35%   Direction: 280°W
Pressure: 29.96"   Gusts: NA
Location:  40.66°N, 111.49°W
Report Text: K36U 212015Z AUTO 28006KT 10SM SCT070 SCT085 BKN100 19/03 A2996 RMK AO2
Loading
Personal Weather Stations






























Interactive Weather Map New forecast layout! Learn more

10-Day Weather Forecast

Advertisements
Track Severe Weather on mobile